Time;durP1;ratioP1;P1;durP2;ratioP2;P2;SDS_P1;SDS_P2;PMS_P1;PMS_P2;Temp;Humidity;BMP_temperature;BMP_pressure;BME280_temperature;BME280_humidity;BME280_pressure;Samples;Min_cycle;Max_cycle;Signal;HPM_P1;HPM_P2
2022/06/23 00:00:37;;;;;;;;;;;;;;;17.53;54.79;99532.25;6271832;28;19921;-80
2022/06/23 00:03:38;;;;;;;;;;;;;;;17.49;53.62;99528.25;6270145;28;20315;-80
2022/06/23 00:06:39;;;;;;;;;;;;;;;17.49;54.20;99530.88;6270349;28;20402;-79
2022/06/23 00:09:46;;;;;;;;;;;;;;;17.48;53.87;99529.25;6271488;28;19921;-82
2022/06/23 00:12:47;;;;;;;;;;;;;;;17.46;53.59;99519.78;6270484;28;19920;-80
2022/06/23 00:15:49;;;;;;;;;;;;;;;17.43;52.77;99517.47;6270177;28;20322;-79
2022/06/23 00:18:51;;;;;;;;;;;;;;;17.46;52.92;99525.91;6271106;28;20405;-82
2022/06/23 00:21:53;;;;;;;;;;;;;;;17.54;53.81;99517.22;6269992;28;19921;-82
2022/06/23 00:24:56;;;;;;;;;;;;;;;17.54;52.70;99519.88;6270088;28;19921;-82
2022/06/23 00:27:58;;;;;;;;;;;;;;;17.53;54.35;99513.78;6269833;28;19971;-82
2022/06/23 00:31:01;;;;;;;;;;;;;;;17.49;53.55;99522.16;6269776;28;19932;-80
2022/06/23 00:34:12;;;;;;;;;;;;;;;17.49;55.38;99528.25;6267796;28;20520;-81
2022/06/23 00:37:14;;;;;;;;;;;;;;;17.46;52.34;99539.09;6254756;28;19924;-82
2022/06/23 00:40:20;;;;;;;;;;;;;;;17.47;53.08;99532.84;6257231;28;20010;-82
2022/06/23 00:43:23;;;;;;;;;;;;;;;17.49;53.56;99527.41;6255135;28;19950;-80
2022/06/23 00:46:35;;;;;;;;;;;;;;;17.48;53.07;99538.94;6272550;28;19924;-80
2022/06/23 00:49:54;;;;;;;;;;;;;;;17.51;53.24;99543.94;6254272;28;20346;-81
2022/06/23 00:52:54;;;;;;;;;;;;;;;17.49;53.97;99535.34;6244921;28;20407;-80
2022/06/23 00:56:01;;;;;;;;;;;;;;;17.44;53.40;99534.94;6261435;28;19921;-82
2022/06/23 00:59:04;;;;;;;;;;;;;;;17.42;52.31;99532.47;6261500;28;19920;-81
2022/06/23 01:02:17;;;;;;;;;;;;;;;17.46;52.81;99525.06;6244680;28;20277;-79
2022/06/23 01:05:29;;;;;;;;;;;;;;;17.45;52.50;99523.44;6244693;28;20284;-80
2022/06/23 01:08:31;;;;;;;;;;;;;;;17.48;52.82;99521.31;6248269;28;19921;-79
2022/06/23 01:11:54;;;;;;;;;;;;;;;17.52;52.40;99519.19;6266141;28;19928;-80
2022/06/23 01:15:00;;;;;;;;;;;;;;;17.52;54.10;99512.13;6249524;28;19967;-80
2022/06/23 01:18:00;;;;;;;;;;;;;;;17.47;55.02;99510.91;6232925;28;20410;-80
2022/06/23 01:21:04;;;;;;;;;;;;;;;17.45;55.55;99533.97;6250610;28;19930;-80
2022/06/23 01:24:20;;;;;;;;;;;;;;;17.39;54.51;99535.41;6265951;28;19921;-80
2022/06/23 01:27:22;;;;;;;;;;;;;;;17.40;54.78;99542.34;6250509;28;19928;-78
2022/06/23 01:30:28;;;;;;;;;;;;;;;17.42;56.02;99534.25;6250502;28;19983;-80
2022/06/23 01:33:35;;;;;;;;;;;;;;;17.34;54.16;99524.47;6249235;28;19921;-79
2022/06/23 01:37:01;;;;;;;;;;;;;;;17.33;54.13;99521.00;6265987;28;19921;-82
2022/06/23 01:40:12;;;;;;;;;;;;;;;17.26;53.91;99516.50;6260764;28;19951;-80
2022/06/23 01:43:19;;;;;;;;;;;;;;;17.21;56.04;99518.72;6248951;28;19921;-82
2022/06/23 01:46:24;;;;;;;;;;;;;;;17.20;56.13;99520.56;6265465;28;20379;-80
2022/06/23 01:49:31;;;;;;;;;;;;;;;17.14;55.35;99528.22;6248898;28;19944;-80
2022/06/23 01:52:31;;;;;;;;;;;;;;;17.15;55.85;99528.06;6248851;28;19928;-80
2022/06/23 01:55:37;;;;;;;;;;;;;;;17.15;56.19;99525.44;6248794;28;19921;-80
2022/06/23 01:58:48;;;;;;;;;;;;;;;17.11;56.95;99521.44;6248582;28;19921;-82
2022/06/23 02:02:14;;;;;;;;;;;;;;;17.10;58.46;99523.25;6248635;28;19974;-82
2022/06/23 02:05:34;;;;;;;;;;;;;;;17.03;56.83;99518.72;6249623;28;19921;-80
2022/06/23 02:08:51;;;;;;;;;;;;;;;16.96;56.56;99515.84;6249553;28;19921;-83
2022/06/23 02:11:54;;;;;;;;;;;;;;;16.94;60.12;99523.06;6248368;28;20345;-82
2022/06/23 02:14:55;;;;;;;;;;;;;;;16.89;59.45;99530.59;6248087;28;19921;-80
2022/06/23 02:18:06;;;;;;;;;;;;;;;16.84;57.92;99544.22;6264482;28;19920;-82
2022/06/23 02:21:19;;;;;;;;;;;;;;;16.85;60.05;99547.66;6249275;28;20379;-80
2022/06/23 02:24:25;;;;;;;;;;;;;;;16.79;60.75;99546.41;6231399;28;19980;-82
2022/06/23 02:27:38;;;;;;;;;;;;;;;16.76;62.36;99551.13;6249230;28;19932;-79
2022/06/23 02:30:48;;;;;;;;;;;;;;;16.73;62.43;99549.63;6249046;28;20019;-79
2022/06/23 02:33:52;;;;;;;;;;;;;;;16.69;59.35;99551.72;6264421;28;19932;-82
2022/06/23 02:36:56;;;;;;;;;;;;;;;16.69;60.62;99558.78;6247810;28;19930;-80
2022/06/23 02:40:01;;;;;;;;;;;;;;;16.72;63.00;99556.72;6264177;28;19956;-80
2022/06/23 02:43:04;;;;;;;;;;;;;;;16.68;59.81;99547.44;6247641;28;20063;-82
2022/06/23 02:46:29;;;;;;;;;;;;;;;16.67;58.58;99564.19;6248713;28;19974;-82
2022/06/23 02:49:48;;;;;;;;;;;;;;;16.64;59.50;99569.78;6247216;28;19921;-82
2022/06/23 02:53:04;;;;;;;;;;;;;;;16.62;59.28;99578.78;6263976;28;19921;-82
2022/06/23 02:56:13;;;;;;;;;;;;;;;16.65;63.35;99567.97;6248388;28;20320;-82
2022/06/23 02:59:19;;;;;;;;;;;;;;;16.62;63.26;99563.81;6247074;28;19931;-80
2022/06/23 03:02:25;;;;;;;;;;;;;;;16.58;61.69;99578.25;6248503;28;19971;-79
2022/06/23 03:05:35;;;;;;;;;;;;;;;16.54;61.90;99578.69;6248104;28;19925;-82
2022/06/23 03:08:36;;;;;;;;;;;;;;;16.55;60.30;99578.53;6263612;28;20295;-83
2022/06/23 03:11:51;;;;;;;;;;;;;;;16.54;59.22;99581.31;6263575;28;19928;-82
2022/06/23 03:14:56;;;;;;;;;;;;;;;16.53;59.23;99580.47;6248237;28;19983;-79
2022/06/23 03:18:26;;;;;;;;;;;;;;;16.52;61.19;99574.38;6246782;28;19921;-79
2022/06/23 03:21:29;;;;;;;;;;;;;;;16.46;61.02;99567.06;6254334;28;19921;-79
2022/06/23 03:24:37;;;;;;;;;;;;;;;16.49;58.89;99571.19;6246607;28;20651;-83
2022/06/23 03:27:42;;;;;;;;;;;;;;;16.51;60.96;99575.38;6246599;28;19982;-82
2022/06/23 03:30:52;;;;;;;;;;;;;;;16.51;61.81;99575.38;6262411;28;20291;-82
2022/06/23 03:34:05;;;;;;;;;;;;;;;16.51;62.40;99579.78;6263052;28;19990;-82
2022/06/23 03:37:07;;;;;;;;;;;;;;;16.48;62.54;99567.72;6262970;28;20467;-79
2022/06/23 03:43:45;;;;;;;;;;;;;;;16.44;62.38;99571.63;6246529;28;19921;-83
2022/06/23 03:46:50;;;;;;;;;;;;;;;16.45;61.76;99581.19;6263113;28;19927;-84
2022/06/23 03:50:00;;;;;;;;;;;;;;;16.46;61.99;99576.75;6246908;28;19951;-83
2022/06/23 03:53:07;;;;;;;;;;;;;;;16.43;61.20;99574.41;6246437;28;19958;-85
2022/06/23 03:56:13;;;;;;;;;;;;;;;16.47;61.24;99575.78;6247338;28;19925;-79
2022/06/23 03:59:15;;;;;;;;;;;;;;;16.43;62.55;99575.25;6246225;28;19925;-79
2022/06/23 04:02:19;;;;;;;;;;;;;;;16.54;62.52;99582.13;6246999;28;20371;-79
2022/06/23 04:05:23;;;;;;;;;;;;;;;16.60;63.72;99591.28;6262454;28;19928;-84
2022/06/23 04:08:26;;;;;;;;;;;;;;;16.57;61.91;99594.19;6246099;28;19932;-81
2022/06/23 04:11:45;;;;;;;;;;;;;;;16.67;60.82;99595.81;6247053;28;20027;-77
2022/06/23 04:14:49;;;;;;;;;;;;;;;16.73;61.85;99600.50;6247162;28;19921;-80
2022/06/23 04:18:04;;;;;;;;;;;;;;;16.77;61.02;99611.59;6246484;28;19996;-82
2022/06/23 04:21:12;;;;;;;;;;;;;;;16.87;60.11;99622.13;6228991;28;19972;-79
2022/06/23 04:24:19;;;;;;;;;;;;;;;17.01;61.86;99615.56;6245419;28;20015;-78
2022/06/23 04:27:29;;;;;;;;;;;;;;;17.04;62.42;99620.53;6245394;28;19920;-82
2022/06/23 04:30:34;;;;;;;;;;;;;;;17.10;60.62;99630.50;6245231;28;19927;-79
2022/06/23 04:33:38;;;;;;;;;;;;;;;17.17;61.87;99636.00;6245492;28;19927;-78
2022/06/23 04:36:43;;;;;;;;;;;;;;;17.25;62.50;99644.00;6246276;28;19921;-79
2022/06/23 04:39:46;;;;;;;;;;;;;;;17.16;61.97;99652.81;6245230;28;20401;-79
2022/06/23 04:42:50;;;;;;;;;;;;;;;17.32;60.26;99655.66;6246092;28;19921;-79
2022/06/23 04:45:51;;;;;;;;;;;;;;;17.31;60.97;99667.16;6245093;28;19955;-78
2022/06/23 04:48:55;;;;;;;;;;;;;;;17.46;61.80;99670.97;6246300;28;19921;-78
2022/06/23 04:52:04;;;;;;;;;;;;;;;17.60;59.52;99666.16;6246162;28;19921;-78
2022/06/23 04:55:08;;;;;;;;;;;;;;;17.72;58.83;99660.53;6244841;28;19928;-81
2022/06/23 04:58:14;;;;;;;;;;;;;;;17.79;60.82;99671.34;6246228;28;19943;-81
2022/06/23 05:01:17;;;;;;;;;;;;;;;17.89;59.53;99677.41;6244905;28;19925;-81
2022/06/23 05:04:29;;;;;;;;;;;;;;;18.00;59.49;99679.00;6244864;28;20020;-78
2022/06/23 05:07:33;;;;;;;;;;;;;;;18.06;58.82;99677.56;6245995;28;19921;-78
2022/06/23 05:10:37;;;;;;;;;;;;;;;18.24;60.20;99690.75;6261231;28;20110;-81
2022/06/23 05:13:45;;;;;;;;;;;;;;;18.26;58.73;99686.13;6228783;28;20387;-80
2022/06/23 05:16:47;;;;;;;;;;;;;;;18.38;58.02;99674.34;6244558;28;19974;-78
2022/06/23 05:19:52;;;;;;;;;;;;;;;18.47;60.00;99683.16;6245878;28;19925;-78
2022/06/23 05:22:52;;;;;;;;;;;;;;;18.62;57.69;99686.09;6244577;28;19951;-80
2022/06/23 05:25:55;;;;;;;;;;;;;;;18.70;57.05;99688.81;6261234;28;20307;-79
2022/06/23 05:28:59;;;;;;;;;;;;;;;18.74;56.79;99690.16;6244540;28;20372;-78
2022/06/23 05:32:06;;;;;;;;;;;;;;;18.83;56.61;99696.34;6244501;28;20331;-80
2022/06/23 05:35:13;;;;;;;;;;;;;;;18.85;56.45;99702.31;6244510;28;19921;-79
2022/06/23 05:38:23;;;;;;;;;;;;;;;18.90;58.85;99702.66;6244544;28;19975;-78
2022/06/23 05:41:39;;;;;;;;;;;;;;;18.97;57.25;99706.34;6245515;28;19975;-79
2022/06/23 05:44:43;;;;;;;;;;;;;;;19.09;55.59;99715.66;6244269;28;19948;-77
2022/06/23 05:47:44;;;;;;;;;;;;;;;19.22;57.57;99717.06;6260883;28;20023;-78
2022/06/23 05:51:11;;;;;;;;;;;;;;;19.30;55.67;99714.44;6260896;28;19921;-79
2022/06/23 05:54:16;;;;;;;;;;;;;;;19.42;54.63;99715.84;6260301;28;19921;-79
2022/06/23 05:57:28;;;;;;;;;;;;;;;19.53;53.31;99710.25;6249938;28;20368;-79
2022/06/23 06:00:42;;;;;;;;;;;;;;;19.69;52.97;99719.25;6248686;28;19955;-79
2022/06/23 06:03:43;;;;;;;;;;;;;;;19.83;52.58;99718.66;6249749;28;19967;-79
2022/06/23 06:06:45;;;;;;;;;;;;;;;20.06;52.21;99716.22;6248470;28;19925;-79
2022/06/23 06:09:46;;;;;;;;;;;;;;;20.23;50.92;99722.34;6250280;28;19921;-80
2022/06/23 06:12:48;;;;;;;;;;;;;;;20.45;50.33;99726.19;6248191;28;19921;-79
2022/06/23 06:15:56;;;;;;;;;;;;;;;20.63;49.45;99730.50;6248175;28;19921;-78
2022/06/23 06:18:57;;;;;;;;;;;;;;;20.82;48.44;99729.34;6248101;28;19960;-79
2022/06/23 06:22:01;;;;;;;;;;;;;;;21.03;47.86;99737.59;6248437;28;19928;-78
2022/06/23 06:25:04;;;;;;;;;;;;;;;21.27;47.45;99728.75;6248011;28;19928;-82
2022/06/23 06:28:27;;;;;;;;;;;;;;;21.51;47.24;99729.66;6248013;28;19928;-80
2022/06/23 06:31:32;;;;;;;;;;;;;;;21.78;47.20;99735.53;6247947;28;20090;-79
2022/06/23 06:34:36;;;;;;;;;;;;;;;22.07;49.33;99740.16;6247995;28;19921;-80
2022/06/23 06:37:39;;;;;;;;;;;;;;;22.14;44.61;99741.13;6264363;28;20295;-79
2022/06/23 06:40:42;;;;;;;;;;;;;;;22.14;44.16;99749.91;6264165;28;19921;-78
2022/06/23 06:43:44;;;;;;;;;;;;;;;22.25;43.84;99750.56;6248576;28;20028;-81
2022/06/23 06:46:47;;;;;;;;;;;;;;;22.46;43.66;99748.06;6247602;28;19957;-78
2022/06/23 06:49:48;;;;;;;;;;;;;;;22.71;42.68;99740.72;6247772;28;20376;-81
2022/06/23 06:52:51;;;;;;;;;;;;;;;23.00;42.05;99743.59;6248541;28;20303;-80
2022/06/23 06:55:55;;;;;;;;;;;;;;;23.10;42.55;99745.03;6247419;28;19927;-80
2022/06/23 06:59:02;;;;;;;;;;;;;;;23.44;42.82;99750.81;6263891;28;19928;-79
2022/06/23 07:02:07;;;;;;;;;;;;;;;23.50;41.66;99752.75;6263859;28;19921;-80
2022/06/23 07:05:27;;;;;;;;;;;;;;;23.48;40.42;99752.91;6246163;28;19921;-78
2022/06/23 07:08:37;;;;;;;;;;;;;;;23.52;39.77;99758.72;6247003;28;20437;-79
2022/06/23 07:11:38;;;;;;;;;;;;;;;23.72;40.15;99761.59;6248161;28;19925;-79
2022/06/23 07:14:39;;;;;;;;;;;;;;;23.88;39.26;99758.75;6263309;28;19921;-80
2022/06/23 07:18:04;;;;;;;;;;;;;;;23.88;39.06;99761.41;6263117;28;19927;-78
2022/06/23 07:21:14;;;;;;;;;;;;;;;24.18;38.05;99769.34;6258228;28;19921;-80
2022/06/23 07:24:25;;;;;;;;;;;;;;;24.35;38.29;99775.25;6246713;28;19921;-80
2022/06/23 07:27:26;;;;;;;;;;;;;;;24.56;38.16;99774.44;6246662;28;20401;-80
2022/06/23 07:30:29;;;;;;;;;;;;;;;24.69;37.07;99771.91;6246391;28;19921;-81
2022/06/23 07:33:49;;;;;;;;;;;;;;;24.84;36.67;99773.66;6247699;28;19921;-80
2022/06/23 07:36:52;;;;;;;;;;;;;;;25.03;38.28;99785.50;6262954;28;20372;-80
2022/06/23 07:39:58;;;;;;;;;;;;;;;25.37;36.65;99787.41;6247513;28;19927;-80
2022/06/23 07:43:06;;;;;;;;;;;;;;;25.38;35.47;99788.22;6247376;28;20311;-79
2022/06/23 07:46:07;;;;;;;;;;;;;;;25.28;34.84;99791.25;6247418;28;20395;-78
2022/06/23 07:49:10;;;;;;;;;;;;;;;25.11;35.13;99788.03;6246111;28;19921;-79
2022/06/23 07:52:18;;;;;;;;;;;;;;;25.56;33.84;99793.88;6229520;28;19928;-81
2022/06/23 07:55:22;;;;;;;;;;;;;;;25.81;33.88;99796.88;6247242;28;19928;-79
2022/06/23 07:58:25;;;;;;;;;;;;;;;25.61;33.48;99791.44;6247100;28;19924;-81
2022/06/23 08:01:26;;;;;;;;;;;;;;;25.88;35.29;99794.22;6245767;28;20399;-79
2022/06/23 08:04:33;;;;;;;;;;;;;;;26.09;32.33;99801.34;6246968;28;20036;-80
2022/06/23 08:07:35;;;;;;;;;;;;;;;26.02;31.33;99800.47;6246010;28;19928;-84
2022/06/23 08:10:37;;;;;;;;;;;;;;;26.02;33.65;99795.13;6245876;28;19920;-81
2022/06/23 08:13:40;;;;;;;;;;;;;;;26.15;31.25;99784.50;6245568;28;20371;-80
2022/06/23 08:16:49;;;;;;;;;;;;;;;25.64;31.74;99777.69;6244952;28;20388;-81
2022/06/23 08:19:55;;;;;;;;;;;;;;;25.68;34.11;99786.97;6262226;28;20372;-79
2022/06/23 08:22:55;;;;;;;;;;;;;;;26.39;30.70;99790.28;6245261;28;19996;-80
2022/06/23 08:25:56;;;;;;;;;;;;;;;26.59;29.94;99793.84;6246556;28;19940;-81
2022/06/23 08:29:00;;;;;;;;;;;;;;;26.33;31.64;99787.38;6245320;28;19921;-82
2022/06/23 08:32:01;;;;;;;;;;;;;;;26.56;31.35;99788.03;6245266;28;19921;-78
2022/06/23 08:35:07;;;;;;;;;;;;;;;26.93;29.51;99783.97;6245512;28;20007;-80
2022/06/23 08:38:10;;;;;;;;;;;;;;;26.94;29.88;99791.78;6246494;28;20425;-82
2022/06/23 08:41:17;;;;;;;;;;;;;;;26.90;30.38;99793.22;6245493;28;20272;-81
2022/06/23 08:44:23;;;;;;;;;;;;;;;27.05;30.03;99792.19;6246299;28;20287;-79
2022/06/23 08:47:53;;;;;;;;;;;;;;;26.78;29.87;99802.09;6228554;28;19921;-82
2022/06/23 08:51:02;;;;;;;;;;;;;;;26.61;30.74;99799.81;6226938;28;19928;-82
2022/06/23 08:54:09;;;;;;;;;;;;;;;27.30;27.45;99792.38;6246207;28;20342;-81
2022/06/23 08:57:10;;;;;;;;;;;;;;;26.59;28.53;99785.81;6246193;28;19925;-82
2022/06/23 09:00:20;;;;;;;;;;;;;;;27.18;29.39;99799.38;6246446;28;20414;-81
2022/06/23 09:03:21;;;;;;;;;;;;;;;27.27;28.11;99795.50;6261348;28;20368;-79
2022/06/23 09:06:34;;;;;;;;;;;;;;;27.65;27.11;99802.81;6261478;28;19995;-79
2022/06/23 09:09:41;;;;;;;;;;;;;;;27.72;26.58;99799.06;6245878;28;20303;-80
2022/06/23 09:12:46;;;;;;;;;;;;;;;27.94;27.01;99806.84;6244746;28;19991;-80
2022/06/23 09:15:52;;;;;;;;;;;;;;;27.88;26.76;99797.81;6246145;28;19928;-81
2022/06/23 09:19:11;;;;;;;;;;;;;;;28.12;27.06;99801.59;6261298;28;20409;-84
2022/06/23 09:22:30;;;;;;;;;;;;;;;27.79;28.57;99790.19;6261423;28;19928;-82
2022/06/23 09:25:39;;;;;;;;;;;;;;;28.04;27.00;99795.66;6244639;28;19921;-79
2022/06/23 09:28:40;;;;;;;;;;;;;;;27.92;26.79;99798.19;6245430;28;19921;-79
2022/06/23 09:32:06;;;;;;;;;;;;;;;27.91;29.13;99793.88;6265951;28;20370;-79
2022/06/23 09:35:12;;;;;;;;;;;;;;;27.93;26.51;99781.06;6248858;28;19979;-80
2022/06/23 09:38:19;;;;;;;;;;;;;;;28.00;28.44;99789.91;6265005;28;20391;-80
2022/06/23 09:41:20;;;;;;;;;;;;;;;27.16;28.10;99786.22;6248307;28;19921;-80
2022/06/23 09:44:36;;;;;;;;;;;;;;;27.50;27.28;99789.66;6264587;28;19964;-79
2022/06/23 09:47:57;;;;;;;;;;;;;;;27.56;27.01;99782.66;6265465;28;19924;-80
2022/06/23 09:51:21;;;;;;;;;;;;;;;28.04;26.25;99791.13;6258264;28;19921;-79
2022/06/23 09:54:25;;;;;;;;;;;;;;;27.95;26.76;99792.41;6246576;28;19982;-82
2022/06/23 09:57:25;;;;;;;;;;;;;;;28.51;25.98;99794.38;6265224;28;19943;-80
2022/06/23 10:00:45;;;;;;;;;;;;;;;28.59;25.79;99797.84;6249761;28;19932;-79
2022/06/23 10:04:01;;;;;;;;;;;;;;;27.88;26.08;99794.28;6264430;28;20494;-80
2022/06/23 10:07:33;;;;;;;;;;;;;;;28.54;24.84;99793.13;6248475;28;19966;-79
2022/06/23 10:10:49;;;;;;;;;;;;;;;28.68;25.72;99794.69;6249228;28;19921;-80
2022/06/23 10:13:56;;;;;;;;;;;;;;;28.63;24.83;99799.84;6247966;28;20334;-80
2022/06/23 10:17:05;;;;;;;;;;;;;;;28.48;25.83;99799.34;6249485;28;19920;-80
2022/06/23 10:20:29;;;;;;;;;;;;;;;28.71;24.66;99807.66;6248454;28;19928;-80
2022/06/23 10:23:48;;;;;;;;;;;;;;;29.39;25.24;99799.84;6248004;28;20163;-81
2022/06/23 10:27:09;;;;;;;;;;;;;;;29.40;25.06;99796.09;6264037;28;19971;-81
2022/06/23 10:30:36;;;;;;;;;;;;;;;28.89;26.25;99804.19;6247120;28;20332;-80
2022/06/23 10:33:42;;;;;;;;;;;;;;;28.80;24.76;99794.75;6222657;28;20265;-79
2022/06/23 10:36:52;;;;;;;;;;;;;;;28.29;25.14;99801.09;6247437;28;20296;-79
2022/06/23 10:39:53;;;;;;;;;;;;;;;29.34;24.37;99803.16;6248651;28;19921;-79
2022/06/23 10:43:12;;;;;;;;;;;;;;;29.49;24.37;99798.28;6247697;28;19928;-79
2022/06/23 10:46:14;;;;;;;;;;;;;;;29.92;22.98;99794.69;6247716;28;20014;-80
2022/06/23 10:49:17;;;;;;;;;;;;;;;30.02;24.07;99796.84;6247671;28;19925;-81
2022/06/23 10:52:20;;;;;;;;;;;;;;;29.53;23.38;99804.03;6247574;28;19982;-78
2022/06/23 10:55:29;;;;;;;;;;;;;;;28.16;24.77;99798.50;6247214;28;19921;-81
2022/06/23 10:58:53;;;;;;;;;;;;;;;28.37;24.68;99787.41;6248597;28;19921;-81
2022/06/23 11:02:00;;;;;;;;;;;;;;;28.90;24.86;99788.91;6244199;28;19987;-80
2022/06/23 11:05:04;;;;;;;;;;;;;;;28.15;24.42;99797.69;6247037;28;19921;-81
2022/06/23 11:08:05;;;;;;;;;;;;;;;28.68;23.87;99797.38;6247121;28;20024;-81
2022/06/23 11:11:25;;;;;;;;;;;;;;;29.53;23.42;99788.72;6247145;28;19991;-79
2022/06/23 11:14:26;;;;;;;;;;;;;;;29.50;24.15;99794.53;6248090;28;19944;-79
2022/06/23 11:17:42;;;;;;;;;;;;;;;29.96;27.30;99796.91;6246583;28;20571;-78
2022/06/23 11:20:45;;;;;;;;;;;;;;;30.52;25.75;99803.81;6246652;28;19928;-79
2022/06/23 11:23:49;;;;;;;;;;;;;;;29.87;25.37;99802.59;6247757;28;19964;-80
2022/06/23 11:27:03;;;;;;;;;;;;;;;30.57;23.55;99800.41;6230093;28;20368;-80
2022/06/23 11:30:05;;;;;;;;;;;;;;;30.57;21.71;99795.03;6246663;28;19921;-80
2022/06/23 11:33:08;;;;;;;;;;;;;;;29.66;22.41;99805.72;6246375;28;19921;-81
2022/06/23 11:36:33;;;;;;;;;;;;;;;29.14;23.58;99808.75;6248171;28;19928;-79
2022/06/23 11:39:45;;;;;;;;;;;;;;;29.86;22.33;99805.53;6246308;28;19929;-78
2022/06/23 11:42:55;;;;;;;;;;;;;;;29.18;23.50;99793.84;6246481;28;19921;-81
2022/06/23 11:45:59;;;;;;;;;;;;;;;29.86;23.56;99798.28;6246070;28;19921;-81
2022/06/23 11:49:00;;;;;;;;;;;;;;;29.70;23.47;99791.63;6246201;28;19924;-81
2022/06/23 11:52:10;;;;;;;;;;;;;;;30.06;22.82;99800.72;6246715;28;19990;-82
2022/06/23 11:55:32;;;;;;;;;;;;;;;30.39;22.27;99804.00;6247176;28;19921;-82
2022/06/23 11:58:45;;;;;;;;;;;;;;;30.56;22.33;99796.91;6247574;28;19921;-80
2022/06/23 12:01:45;;;;;;;;;;;;;;;28.79;24.42;99793.13;6245896;28;19925;-82
2022/06/23 12:04:52;;;;;;;;;;;;;;;29.07;24.09;99789.97;6229248;28;20002;-80
2022/06/23 12:07:59;;;;;;;;;;;;;;;29.48;25.01;99799.28;6247028;28;19974;-80
2022/06/23 12:11:00;;;;;;;;;;;;;;;30.22;24.21;99793.03;6247355;28;19921;-79
2022/06/23 12:14:02;;;;;;;;;;;;;;;29.62;25.06;99794.59;6245678;28;19936;-81
2022/06/23 12:17:03;;;;;;;;;;;;;;;29.21;24.37;99792.56;6246459;28;20043;-79
2022/06/23 12:20:23;;;;;;;;;;;;;;;28.25;24.99;99786.47;6246651;28;19932;-80
2022/06/23 12:23:24;;;;;;;;;;;;;;;28.14;25.56;99794.16;6245215;28;20086;-78
2022/06/23 12:26:34;;;;;;;;;;;;;;;29.05;24.33;99789.38;6245339;28;19932;-79
2022/06/23 12:29:40;;;;;;;;;;;;;;;29.00;23.02;99801.84;6228733;28;19925;-79
2022/06/23 12:33:00;;;;;;;;;;;;;;;29.17;22.96;99794.88;6245391;28;19921;-79
2022/06/23 12:36:10;;;;;;;;;;;;;;;29.25;24.12;99796.47;6245169;28;19944;-78
2022/06/23 12:39:14;;;;;;;;;;;;;;;29.98;25.31;99790.28;6245363;28;19967;-78
2022/06/23 12:42:19;;;;;;;;;;;;;;;30.03;24.47;99800.34;6244487;28;19921;-80
2022/06/23 12:45:20;;;;;;;;;;;;;;;29.86;24.57;99794.78;6246146;28;19927;-79
2022/06/23 12:48:41;;;;;;;;;;;;;;;29.11;24.28;99785.84;6246035;28;19921;-81
2022/06/23 12:51:42;;;;;;;;;;;;;;;28.37;25.54;99782.03;6243886;28;19921;-79
2022/06/23 12:54:51;;;;;;;;;;;;;;;28.79;25.23;99778.91;6244317;28;19928;-79
2022/06/23 12:57:54;;;;;;;;;;;;;;;29.42;25.61;99786.75;6228515;28;20007;-79
2022/06/23 13:01:02;;;;;;;;;;;;;;;28.92;22.70;99789.50;6244730;28;20363;-83
2022/06/23 13:04:13;;;;;;;;;;;;;;;27.98;23.89;99786.59;6248057;28;19928;-79
2022/06/23 13:07:14;;;;;;;;;;;;;;;28.00;25.60;99781.03;6249712;28;19921;-80
2022/06/23 13:10:15;;;;;;;;;;;;;;;27.92;26.00;99782.94;6249805;28;20291;-78
2022/06/23 13:13:18;;;;;;;;;;;;;;;28.52;25.40;99787.16;6233308;28;19921;-78
2022/06/23 13:16:31;;;;;;;;;;;;;;;28.45;25.42;99780.97;6250847;28;19920;-78
2022/06/23 13:19:36;;;;;;;;;;;;;;;28.33;25.78;99772.78;6249417;28;19921;-81
2022/06/23 13:22:45;;;;;;;;;;;;;;;28.52;25.76;99776.44;6249520;28;19932;-81
2022/06/23 13:25:51;;;;;;;;;;;;;;;28.63;24.31;99774.88;6250481;28;19967;-80
2022/06/23 13:29:06;;;;;;;;;;;;;;;28.63;24.73;99780.25;6249803;28;19921;-80
2022/06/23 13:32:08;;;;;;;;;;;;;;;27.86;25.51;99785.59;6249281;28;19931;-80
2022/06/23 13:35:17;;;;;;;;;;;;;;;28.29;25.23;99767.06;6249150;28;19920;-81
2022/06/23 13:38:29;;;;;;;;;;;;;;;27.87;26.08;99755.13;6247420;28;19921;-80
2022/06/23 13:41:34;;;;;;;;;;;;;;;28.28;26.75;99764.59;6249243;28;19920;-80
2022/06/23 13:44:35;;;;;;;;;;;;;;;28.31;26.28;99764.97;6267023;28;20438;-84
2022/06/23 13:48:00;;;;;;;;;;;;;;;28.44;24.82;99772.09;6273907;28;19925;-83
2022/06/23 13:51:11;;;;;;;;;;;;;;;28.19;25.92;99765.88;6257046;28;19928;-81
2022/06/23 13:54:20;;;;;;;;;;;;;;;28.14;26.84;99755.78;6275006;28;19928;-85
2022/06/23 13:57:31;;;;;;;;;;;;;;;28.12;26.96;99752.50;6273442;28;19928;-79
2022/06/23 14:00:42;;;;;;;;;;;;;;;27.92;27.00;99760.66;6273274;28;19926;-79
2022/06/23 14:03:52;;;;;;;;;;;;;;;27.88;27.84;99768.31;6256473;28;19927;-79
2022/06/23 14:07:02;;;;;;;;;;;;;;;27.81;27.52;99764.81;6274335;28;20283;-84
2022/06/23 14:10:08;;;;;;;;;;;;;;;27.49;28.00;99756.69;6273247;28;20014;-79
2022/06/23 14:13:16;;;;;;;;;;;;;;;27.36;28.32;99758.59;6274763;28;19928;-78
2022/06/23 14:16:27;;;;;;;;;;;;;;;27.14;27.64;99762.31;6272810;28;20020;-82
2022/06/23 14:19:31;;;;;;;;;;;;;;;27.47;27.09;99755.28;6273248;28;19921;-83
2022/06/23 14:22:40;;;;;;;;;;;;;;;27.50;27.84;99752.16;6274398;28;20003;-84
2022/06/23 14:25:47;;;;;;;;;;;;;;;27.64;27.33;99755.63;6256405;28;19978;-79
2022/06/23 14:28:48;;;;;;;;;;;;;;;27.54;27.27;99756.06;6289581;28;19921;-85
2022/06/23 14:32:02;;;;;;;;;;;;;;;27.20;27.97;99755.31;6272859;28;20005;-79
2022/06/23 14:35:16;;;;;;;;;;;;;;;26.66;27.92;99754.53;6272790;28;19981;-85
2022/06/23 14:38:20;;;;;;;;;;;;;;;26.62;28.83;99755.16;6272504;28;20015;-81
2022/06/23 14:41:24;;;;;;;;;;;;;;;26.77;28.81;99750.44;6271200;28;19921;-81
2022/06/23 14:44:39;;;;;;;;;;;;;;;27.01;29.20;99745.44;6272186;28;19928;-79
2022/06/23 14:47:52;;;;;;;;;;;;;;;27.42;28.17;99745.16;6255325;28;19921;-81
2022/06/23 14:51:00;;;;;;;;;;;;;;;27.64;27.49;99745.72;6272123;28;20554;-80
2022/06/23 14:54:01;;;;;;;;;;;;;;;27.46;28.71;99743.72;6271237;28;20027;-80
2022/06/23 14:57:20;;;;;;;;;;;;;;;27.64;28.75;99737.66;6270596;28;19927;-81
2022/06/23 15:00:23;;;;;;;;;;;;;;;27.50;28.17;99739.56;6288283;28;19943;-77
2022/06/23 15:03:30;;;;;;;;;;;;;;;27.29;29.89;99731.81;6273357;28;19920;-80
2022/06/23 15:06:31;;;;;;;;;;;;;;;27.60;29.16;99735.63;6274624;28;20007;-80
2022/06/23 15:09:31;;;;;;;;;;;;;;;27.15;29.60;99739.03;6273312;28;19920;-81
2022/06/23 15:13:05;;;;;;;;;;;;;;;27.13;28.82;99744.59;6272935;28;19928;-78
2022/06/23 15:16:15;;;;;;;;;;;;;;;27.29;29.90;99746.03;6261532;28;19971;-78
2022/06/23 15:19:36;;;;;;;;;;;;;;;27.44;28.55;99740.41;6271591;28;19924;-78
2022/06/23 15:26:22;;;;;;;;;;;;;;;27.54;29.34;99730.06;6273671;28;19925;-79
2022/06/23 15:29:27;;;;;;;;;;;;;;;27.29;28.51;99738.00;6272826;28;19924;-83
2022/06/23 15:32:27;;;;;;;;;;;;;;;27.15;30.10;99728.31;6272709;28;19958;-78
2022/06/23 15:35:37;;;;;;;;;;;;;;;26.87;30.75;99732.09;6272843;28;19974;-78
2022/06/23 15:38:50;;;;;;;;;;;;;;;26.59;31.09;99731.50;6272759;28;19951;-82
2022/06/23 15:41:58;;;;;;;;;;;;;;;26.59;30.28;99736.84;6255889;28;19990;-79
2022/06/23 15:45:02;;;;;;;;;;;;;;;26.51;29.29;99746.69;6271695;28;19928;-76
2022/06/23 15:48:03;;;;;;;;;;;;;;;26.61;29.13;99745.50;6272340;28;20013;-80
2022/06/23 15:51:10;;;;;;;;;;;;;;;26.89;29.90;99746.09;6271245;28;19947;-83
2022/06/23 15:54:20;;;;;;;;;;;;;;;27.16;29.23;99747.88;6270972;28;19920;-81
2022/06/23 15:57:47;;;;;;;;;;;;;;;27.01;28.98;99748.13;6287674;28;19921;-79
2022/06/23 16:00:51;;;;;;;;;;;;;;;27.30;29.31;99733.47;6270736;28;19920;-79
2022/06/23 16:03:53;;;;;;;;;;;;;;;27.32;29.09;99744.78;6270525;28;20015;-84
2022/06/23 16:06:56;;;;;;;;;;;;;;;26.99;29.53;99739.47;6270647;28;19921;-78
2022/06/23 16:09:59;;;;;;;;;;;;;;;27.21;28.80;99746.22;6270557;28;19921;-77
2022/06/23 16:13:01;;;;;;;;;;;;;;;27.03;29.11;99736.16;6288735;28;19921;-76
2022/06/23 16:16:05;;;;;;;;;;;;;;;27.21;29.08;99745.41;6271229;28;19921;-77
2022/06/23 16:19:19;;;;;;;;;;;;;;;27.45;29.05;99746.63;6272635;28;20294;-77
2022/06/23 16:22:37;;;;;;;;;;;;;;;26.87;29.70;99744.63;6271811;28;19928;-81
2022/06/23 16:25:53;;;;;;;;;;;;;;;27.32;29.31;99747.47;6271933;28;19920;-83